Bo Camarones, Puerto Rico
Current Conditions -  °F | °C
As of 10:56 PM on Sunday 23 Nov 2014 (Local Time) from TJSJ Reporting Station
Scattered Clouds Scattered Clouds  
Wind Chill: 81°   Ceiling: Unl
Heat Index: 86°   Visibility: 10mi
Dew Point: 73°   Wind: 13mph
Humidity: 77%   Direction: 70°ENE
Pressure: 30.02"   Gusts: NA
Location:  18.3754°N, 66.0577°W
Report Text: TJSJ 240256Z 07011KT 10SM SCT024 27/23 A3002 RMK AO2 SLP163 T02720228 50004 $
Loading
Personal Weather Stations






























Interactive Weather Map New forecast layout! Learn more

10-Day Weather Forecast

Advertisements
Track Severe Weather on mobile